createdAt,value
2023-07-24T00:00:06.634Z,99410.28
2023-07-24T00:02:33.373Z,99402.81
2023-07-24T00:04:59.966Z,99401.75
2023-07-24T00:07:26.673Z,99398.25
2023-07-24T00:09:53.773Z,99389.34
2023-07-24T00:12:20.374Z,99388.53
2023-07-24T00:14:46.985Z,99388.59
2023-07-24T00:17:13.651Z,99390.00
2023-07-24T00:19:40.239Z,99399.09
2023-07-24T00:22:06.941Z,99396.69
2023-07-24T00:24:33.622Z,99391.75
2023-07-24T00:27:00.366Z,99389.25
2023-07-24T00:29:27.006Z,99382.69
2023-07-24T00:31:53.661Z,99369.44
2023-07-24T00:34:20.304Z,99367.97
2023-07-24T00:36:46.937Z,99357.97
2023-07-24T00:39:16.104Z,99365.19
2023-07-24T00:41:43.811Z,99365.72
2023-07-24T00:44:10.430Z,99371.94
2023-07-24T00:46:37.373Z,99368.34
2023-07-24T00:49:05.732Z,99367.03
2023-07-24T00:51:32.761Z,99370.16
2023-07-24T00:54:02.197Z,99377.28
2023-07-24T00:56:30.511Z,99367.31
2023-07-24T00:58:57.953Z,99362.09
2023-07-24T01:01:25.161Z,99358.78
2023-07-24T01:03:52.880Z,99356.94
2023-07-24T01:06:19.804Z,99348.94
2023-07-24T01:08:46.447Z,99348.94
2023-07-24T01:11:17.461Z,99350.75
2023-07-24T01:13:57.032Z,99348.44
2023-07-24T01:16:27.858Z,99352.94
2023-07-24T01:18:57.091Z,99351.72
2023-07-24T01:21:30.651Z,99359.56
2023-07-24T01:24:15.704Z,99353.38
2023-07-24T01:26:42.818Z,99357.16
2023-07-24T01:29:09.414Z,99352.53
2023-07-24T01:31:36.270Z,99349.19
2023-07-24T01:34:02.917Z,99342.69
2023-07-24T01:36:29.740Z,99341.03
2023-07-24T01:38:57.489Z,99338.84
2023-07-24T01:41:25.079Z,99337.63
2023-07-24T01:43:51.712Z,99343.13
2023-07-24T01:46:18.361Z,99342.66
2023-07-24T01:48:45.096Z,99339.59
2023-07-24T01:51:11.676Z,99330.06
2023-07-24T01:53:38.261Z,99323.94
2023-07-24T01:56:05.174Z,99331.34
2023-07-24T01:58:31.850Z,99320.50
2023-07-24T02:00:58.521Z,99322.53
2023-07-24T02:03:25.270Z,99319.00
2023-07-24T02:05:52.746Z,99318.84
2023-07-24T02:08:19.500Z,99317.97
2023-07-24T02:10:49.953Z,99321.09
2023-07-24T02:13:16.633Z,99322.75
2023-07-24T02:15:43.202Z,99315.78
2023-07-24T02:18:09.931Z,99322.63
2023-07-24T02:20:36.522Z,99314.47
2023-07-24T02:23:03.138Z,99316.72
2023-07-24T02:25:29.784Z,99320.06
2023-07-24T02:27:56.983Z,99322.41
2023-07-24T02:30:23.640Z,99317.47
2023-07-24T02:32:50.701Z,99312.28
2023-07-24T02:35:19.302Z,99319.97
2023-07-24T02:37:46.363Z,99310.25
2023-07-24T02:40:13.409Z,99317.34
2023-07-24T02:42:41.270Z,99313.56
2023-07-24T02:45:12.373Z,99311.63
2023-07-24T02:47:39.184Z,99312.22
2023-07-24T02:50:06.180Z,99310.69
2023-07-24T02:56:21.723Z,99304.69
2023-07-24T02:58:48.301Z,99309.41
2023-07-24T03:01:15.468Z,99313.25
2023-07-24T03:03:42.703Z,99314.94
2023-07-24T03:06:09.442Z,99314.47
2023-07-24T03:08:36.006Z,99314.75
2023-07-24T03:11:06.033Z,99309.44
2023-07-24T03:13:32.572Z,99309.59
2023-07-24T03:16:00.221Z,99307.09
2023-07-24T03:18:27.000Z,99306.97
2023-07-24T03:20:53.611Z,99310.44
2023-07-24T03:23:21.299Z,99308.38
2023-07-24T03:25:48.113Z,99305.81
2023-07-24T03:28:14.665Z,99300.78
2023-07-24T03:30:41.270Z,99308.00
2023-07-24T03:33:08.398Z,99305.31
2023-07-24T03:35:35.157Z,99306.03
2023-07-24T03:38:01.758Z,99307.69
2023-07-24T03:40:28.370Z,99294.41
2023-07-24T03:42:55.010Z,99292.72
2023-07-24T03:45:21.888Z,99297.94
2023-07-24T03:47:48.505Z,99300.75
2023-07-24T03:50:15.225Z,99287.44
2023-07-24T03:52:41.799Z,99286.97
2023-07-24T03:55:09.134Z,99287.09
2023-07-24T03:57:35.891Z,99282.06
2023-07-24T04:00:03.887Z,99278.78
2023-07-24T04:02:30.477Z,99268.16
2023-07-24T04:04:57.214Z,99259.91
2023-07-24T04:07:24.002Z,99263.94
2023-07-24T04:09:50.653Z,99252.84
2023-07-24T04:12:17.203Z,99254.13
2023-07-24T04:14:43.849Z,99257.03
2023-07-24T04:17:10.751Z,99252.59
2023-07-24T04:19:37.374Z,99252.97
2023-07-24T04:22:04.209Z,99259.63
2023-07-24T04:24:30.790Z,99248.88
2023-07-24T04:26:57.402Z,99250.72
2023-07-24T04:29:26.840Z,99251.59
2023-07-24T04:31:53.628Z,99245.97
2023-07-24T04:34:20.432Z,99245.50
2023-07-24T04:36:46.967Z,99247.09
2023-07-24T04:39:13.572Z,99250.75
2023-07-24T04:41:40.182Z,99245.13
2023-07-24T04:44:06.727Z,99251.25
2023-07-24T04:46:33.687Z,99258.69
2023-07-24T04:49:00.640Z,99254.97
2023-07-24T04:51:27.242Z,99253.41
2023-07-24T04:53:54.816Z,99250.34
2023-07-24T04:56:21.389Z,99243.13
2023-07-24T04:58:47.938Z,99243.53
2023-07-24T05:01:14.507Z,99244.06
2023-07-24T05:03:41.153Z,99242.69
2023-07-24T05:06:07.739Z,99242.44
2023-07-24T05:08:34.426Z,99234.09
2023-07-24T05:11:01.043Z,99234.56
2023-07-24T05:13:28.177Z,99232.16
2023-07-24T05:15:54.758Z,99228.31
2023-07-24T05:18:21.491Z,99228.41
2023-07-24T05:20:49.709Z,99225.19
2023-07-24T05:23:16.417Z,99225.97
2023-07-24T05:25:43.061Z,99222.13
2023-07-24T05:28:10.447Z,99228.56
2023-07-24T05:30:37.304Z,99232.50
2023-07-24T05:33:03.982Z,99228.31
2023-07-24T05:35:30.722Z,99230.16
2023-07-24T05:37:57.373Z,99229.78
2023-07-24T05:40:24.028Z,99235.38
2023-07-24T05:42:50.612Z,99226.91
2023-07-24T05:45:17.226Z,99222.78
2023-07-24T05:47:43.955Z,99223.81
2023-07-24T05:50:11.003Z,99223.00
2023-07-24T05:52:37.578Z,99222.00
2023-07-24T05:55:04.597Z,99219.69
2023-07-24T05:57:31.250Z,99220.94
2023-07-24T05:59:57.816Z,99217.59
2023-07-24T06:02:24.674Z,99215.72
2023-07-24T06:04:51.402Z,99218.22
2023-07-24T06:07:18.083Z,99208.91
2023-07-24T06:09:44.688Z,99211.97
2023-07-24T06:12:11.297Z,99215.75
2023-07-24T06:14:37.871Z,99211.81
2023-07-24T06:17:05.384Z,99207.25
2023-07-24T06:19:32.050Z,99207.66
2023-07-24T06:21:58.754Z,99209.75
2023-07-24T06:24:25.452Z,99210.13
2023-07-24T06:26:52.097Z,99209.94
2023-07-24T06:29:18.748Z,99215.56
2023-07-24T06:31:45.382Z,99217.44
2023-07-24T06:34:12.081Z,99215.75
2023-07-24T06:36:38.631Z,99217.44
2023-07-24T06:39:05.276Z,99213.69
2023-07-24T06:41:31.893Z,99215.78
2023-07-24T06:43:58.492Z,99215.78
2023-07-24T06:46:25.136Z,99215.78
2023-07-24T06:48:51.724Z,99212.81
2023-07-24T06:51:18.316Z,99211.34
2023-07-24T06:53:44.873Z,99209.84
2023-07-24T06:56:11.426Z,99211.41
2023-07-24T06:58:37.967Z,99208.94
2023-07-24T07:01:08.309Z,99202.09
2023-07-24T07:03:38.094Z,99192.22
2023-07-24T07:06:04.853Z,99191.91
2023-07-24T07:08:31.851Z,99198.66
2023-07-24T07:10:59.592Z,99200.53
2023-07-24T07:13:26.237Z,99198.88
2023-07-24T07:15:52.904Z,99197.09
2023-07-24T07:18:19.715Z,99201.63
2023-07-24T07:20:51.461Z,99192.53
2023-07-24T07:23:18.738Z,99200.38
2023-07-24T07:25:48.716Z,99198.44
2023-07-24T07:28:16.814Z,99199.50
2023-07-24T07:30:46.083Z,99190.75
2023-07-24T07:33:12.945Z,99196.25
2023-07-24T07:35:39.517Z,99184.59
2023-07-24T07:38:06.121Z,99187.81
2023-07-24T07:40:32.756Z,99188.50
2023-07-24T07:42:59.337Z,99184.72
2023-07-24T07:45:26.313Z,99182.34
2023-07-24T07:47:54.447Z,99179.63
2023-07-24T07:50:21.338Z,99174.50
2023-07-24T07:52:51.748Z,99166.81
2023-07-24T07:55:21.284Z,99157.59
2023-07-24T07:57:47.904Z,99145.16
2023-07-24T08:00:14.871Z,99136.38
2023-07-24T08:02:41.592Z,99138.81
2023-07-24T08:05:13.629Z,99141.06
2023-07-24T08:07:41.153Z,99141.06
2023-07-24T08:10:08.133Z,99141.78
2023-07-24T08:12:35.117Z,99128.97
2023-07-24T08:15:01.853Z,99131.72
2023-07-24T08:17:28.598Z,99134.69
2023-07-24T08:19:55.323Z,99125.03
2023-07-24T08:22:23.748Z,99128.56
2023-07-24T08:24:53.000Z,99122.09
2023-07-24T08:27:21.115Z,99117.09
2023-07-24T08:29:47.677Z,99116.66
2023-07-24T08:32:14.529Z,99110.75
2023-07-24T08:34:41.156Z,99110.91
2023-07-24T08:37:07.745Z,99109.88
2023-07-24T08:39:34.379Z,99095.06
2023-07-24T08:42:01.202Z,99092.78
2023-07-24T08:44:32.205Z,99085.25
2023-07-24T08:46:59.362Z,99090.66
2023-07-24T08:49:26.773Z,99081.44
2023-07-24T08:51:54.293Z,99078.19
2023-07-24T08:54:21.541Z,99083.44
2023-07-24T08:56:51.349Z,99072.09
2023-07-24T08:59:17.983Z,99081.59
2023-07-24T09:01:45.271Z,99066.56
2023-07-24T09:04:11.830Z,99057.03
2023-07-24T09:06:38.557Z,99057.53
2023-07-24T09:09:14.931Z,99063.84
2023-07-24T09:11:50.261Z,99062.31
2023-07-24T09:14:31.185Z,99061.66
2023-07-24T09:17:05.013Z,99072.94
2023-07-24T09:19:32.130Z,99065.63
2023-07-24T09:22:12.765Z,99084.47
2023-07-24T09:24:49.958Z,99070.16
2023-07-24T09:27:16.656Z,99083.69
2023-07-24T09:29:43.313Z,99080.16
2023-07-24T09:32:39.121Z,99078.34
2023-07-24T09:35:07.201Z,99073.16
2023-07-24T09:37:35.467Z,99078.59
2023-07-24T09:40:05.397Z,99077.63
2023-07-24T09:42:47.467Z,99079.66
2023-07-24T09:45:23.288Z,99074.75
2023-07-24T09:47:56.545Z,99079.34
2023-07-24T09:50:27.280Z,99078.09
2023-07-24T09:52:55.722Z,99071.28
2023-07-24T09:55:33.748Z,99070.09
2023-07-24T09:58:01.794Z,99072.41
2023-07-24T10:00:29.294Z,99068.13
2023-07-24T10:02:57.176Z,99069.19
2023-07-24T10:05:24.046Z,99062.19
2023-07-24T10:07:52.502Z,99059.69
2023-07-24T10:10:19.524Z,99064.19
2023-07-24T10:12:46.310Z,99062.88
2023-07-24T10:15:13.282Z,99061.06
2023-07-24T10:17:41.813Z,99052.09
2023-07-24T10:20:09.518Z,99059.56
2023-07-24T10:22:39.088Z,99052.25
2023-07-24T10:25:06.990Z,99055.56
2023-07-24T10:27:37.805Z,99052.75
2023-07-24T10:30:18.639Z,99050.44
2023-07-24T10:32:54.219Z,99063.78
2023-07-24T10:35:23.900Z,99064.69
2023-07-24T10:38:01.290Z,99078.69
2023-07-24T10:40:28.048Z,99077.16
2023-07-24T10:43:07.911Z,99066.41
2023-07-24T10:45:43.620Z,99060.72
2023-07-24T10:48:12.773Z,99062.06
2023-07-24T10:50:41.226Z,99062.47
2023-07-24T10:53:07.849Z,99062.34
2023-07-24T10:55:34.537Z,99068.59
2023-07-24T10:58:01.129Z,99079.75
2023-07-24T11:00:28.589Z,99070.91
2023-07-24T11:02:55.956Z,99075.75
2023-07-24T11:05:23.872Z,99063.84
2023-07-24T11:07:50.924Z,99054.69
2023-07-24T11:10:21.122Z,99051.53
2023-07-24T11:12:48.387Z,99038.97
2023-07-24T11:15:15.694Z,99034.09
2023-07-24T11:17:43.676Z,99022.03
2023-07-24T11:20:16.107Z,99016.22
2023-07-24T11:22:44.463Z,99023.56
2023-07-24T11:25:12.250Z,99016.59
2023-07-24T11:27:42.459Z,99021.91
2023-07-24T11:30:10.329Z,99010.78
2023-07-24T11:32:39.895Z,99001.25
2023-07-24T11:35:07.522Z,99003.56
2023-07-24T11:37:35.954Z,99004.09
2023-07-24T11:40:11.991Z,98997.19
2023-07-24T11:42:40.476Z,98988.22
2023-07-24T11:45:10.861Z,98988.44
2023-07-24T11:47:48.622Z,98988.34
2023-07-24T11:50:17.306Z,98976.94
2023-07-24T11:52:46.582Z,98974.06
2023-07-24T11:55:15.498Z,98972.53
2023-07-24T11:57:42.196Z,98963.56
2023-07-24T12:00:20.981Z,98971.66
2023-07-24T12:02:47.774Z,98976.34
2023-07-24T12:05:14.578Z,98972.28
2023-07-24T12:07:45.050Z,98968.47
2023-07-24T12:10:13.916Z,98964.38
2023-07-24T12:12:47.996Z,98958.28
2023-07-24T12:15:16.001Z,98963.03
2023-07-24T12:17:42.712Z,98957.31
2023-07-24T12:20:13.687Z,98960.25
2023-07-24T12:22:40.495Z,98969.06
2023-07-24T12:25:07.632Z,98965.53
2023-07-24T12:27:34.607Z,98969.69
2023-07-24T12:30:01.706Z,98967.66
2023-07-24T12:32:28.341Z,98974.06
2023-07-24T12:34:55.299Z,98987.81
2023-07-24T12:37:22.085Z,98987.50
2023-07-24T12:39:49.410Z,98984.16
2023-07-24T12:42:16.994Z,99010.38
2023-07-24T12:44:44.862Z,99033.69
2023-07-24T12:47:12.672Z,99024.88
2023-07-24T12:49:39.790Z,99045.22
2023-07-24T12:52:07.056Z,99040.41
2023-07-24T12:54:50.501Z,99039.50
2023-07-24T12:57:20.238Z,99035.13
2023-07-24T12:59:46.882Z,99037.91
2023-07-24T13:02:13.450Z,99023.41
2023-07-24T13:04:40.461Z,99025.66
2023-07-24T13:07:07.201Z,99020.63
2023-07-24T13:09:33.746Z,99015.81
2023-07-24T13:12:00.404Z,99019.66
2023-07-24T13:14:26.956Z,99008.50
2023-07-24T13:16:53.663Z,98988.31
2023-07-24T13:19:21.591Z,98970.50
2023-07-24T13:21:48.564Z,98965.97
2023-07-24T13:24:15.527Z,98971.31
2023-07-24T13:26:42.290Z,98972.44
2023-07-24T13:29:08.905Z,98978.44
2023-07-24T13:31:36.174Z,98978.88
2023-07-24T13:34:03.303Z,98967.19
2023-07-24T13:36:30.363Z,98950.75
2023-07-24T13:38:57.224Z,98953.63
2023-07-24T13:41:23.804Z,98948.28
2023-07-24T13:43:50.446Z,98950.41
2023-07-24T13:46:17.074Z,98927.81
2023-07-24T13:48:43.840Z,98927.47
2023-07-24T13:51:10.483Z,98906.78
2023-07-24T13:53:37.161Z,98907.69
2023-07-24T13:56:04.274Z,98899.16
2023-07-24T13:58:30.888Z,98883.19
2023-07-24T14:00:57.504Z,98865.13
2023-07-24T14:03:29.273Z,98869.53
2023-07-24T14:05:56.809Z,98861.38
2023-07-24T14:08:23.426Z,98859.38
2023-07-24T14:10:50.140Z,98856.13
2023-07-24T14:13:16.757Z,98856.03
2023-07-24T14:15:43.652Z,98848.84
2023-07-24T14:18:10.271Z,98850.22
2023-07-24T14:20:38.340Z,98850.81
2023-07-24T14:23:04.939Z,98848.97
2023-07-24T14:25:31.565Z,98839.88
2023-07-24T14:27:58.165Z,98833.97
2023-07-24T14:30:24.715Z,98818.66
2023-07-24T14:32:51.853Z,98827.88
2023-07-24T14:35:19.373Z,98827.72
2023-07-24T14:37:45.982Z,98832.44
2023-07-24T14:40:13.290Z,98820.06
2023-07-24T14:42:39.934Z,98826.41
2023-07-24T14:45:07.338Z,98809.03
2023-07-24T14:47:33.934Z,98796.00
2023-07-24T14:50:00.623Z,98800.16
2023-07-24T14:52:27.258Z,98779.41
2023-07-24T14:54:53.871Z,98752.63
2023-07-24T14:57:25.473Z,98745.16
2023-07-24T14:59:52.545Z,98752.47
2023-07-24T15:02:19.809Z,98750.38
2023-07-24T15:04:46.494Z,98741.22
2023-07-24T15:07:13.102Z,98742.75
2023-07-24T15:09:39.712Z,98748.25
2023-07-24T15:12:06.688Z,98758.75
2023-07-24T15:14:33.376Z,98746.34
2023-07-24T15:17:00.074Z,98753.97
2023-07-24T15:19:26.686Z,98757.19
2023-07-24T15:21:53.307Z,98745.53
2023-07-24T15:24:20.373Z,98729.78
2023-07-24T15:26:47.278Z,98738.16
2023-07-24T15:29:18.860Z,98732.47
2023-07-24T15:31:46.145Z,98741.84
2023-07-24T15:34:12.959Z,98741.78
2023-07-24T15:36:39.731Z,98743.00
2023-07-24T15:39:06.518Z,98741.13
2023-07-24T15:41:33.893Z,98726.94
2023-07-24T15:44:00.873Z,98739.25
2023-07-24T15:46:33.022Z,98742.72
2023-07-24T15:49:00.813Z,98741.41
2023-07-24T15:51:27.911Z,98737.16
2023-07-24T15:53:55.184Z,98719.91
2023-07-24T15:56:22.360Z,98724.09
2023-07-24T15:58:51.055Z,98712.09
2023-07-24T16:01:18.148Z,98713.34
2023-07-24T16:03:45.076Z,98702.34
2023-07-24T16:06:12.540Z,98698.84
2023-07-24T16:08:39.368Z,98692.75
2023-07-24T16:11:09.369Z,98687.63
2023-07-24T16:13:45.172Z,98682.56
2023-07-24T16:16:15.014Z,98672.28
2023-07-24T16:18:42.458Z,98682.06
2023-07-24T16:21:09.137Z,98680.63
2023-07-24T16:23:36.062Z,98688.00
2023-07-24T16:26:02.924Z,98684.41
2023-07-24T16:28:29.564Z,98683.63
2023-07-24T16:30:58.924Z,98688.19
2023-07-24T16:33:26.023Z,98695.34
2023-07-24T16:35:53.160Z,98682.56
2023-07-24T16:38:19.977Z,98689.50
2023-07-24T16:40:46.768Z,98689.25
2023-07-24T16:43:13.434Z,98700.41
2023-07-24T16:45:40.089Z,98698.34
2023-07-24T16:48:07.186Z,98687.81
2023-07-24T16:50:36.479Z,98690.22
2023-07-24T16:53:04.187Z,98686.88
2023-07-24T16:55:30.843Z,98684.22
2023-07-24T16:57:57.869Z,98679.19
2023-07-24T17:00:24.603Z,98680.25
2023-07-24T17:02:51.375Z,98671.91
2023-07-24T17:05:18.193Z,98681.06
2023-07-24T17:07:44.810Z,98678.97
2023-07-24T17:10:11.575Z,98676.13
2023-07-24T17:12:38.170Z,98678.47
2023-07-24T17:15:05.069Z,98675.38
2023-07-24T17:17:31.755Z,98675.84
2023-07-24T17:19:58.442Z,98661.50
2023-07-24T17:22:25.246Z,98664.00
2023-07-24T17:24:52.247Z,98661.41
2023-07-24T17:27:18.889Z,98666.09
2023-07-24T17:29:46.298Z,98670.56
2023-07-24T17:32:14.166Z,98676.16
2023-07-24T17:34:42.037Z,98680.56
2023-07-24T17:37:08.669Z,98668.13
2023-07-24T17:39:35.354Z,98665.50
2023-07-24T17:42:02.035Z,98671.22
2023-07-24T17:44:28.644Z,98653.53
2023-07-24T17:46:55.261Z,98659.34
2023-07-24T17:49:21.896Z,98660.75
2023-07-24T17:51:48.535Z,98648.78
2023-07-24T17:54:15.069Z,98647.44
2023-07-24T17:56:41.954Z,98648.91
2023-07-24T17:59:08.523Z,98648.22
2023-07-24T18:01:36.225Z,98639.97
2023-07-24T18:04:02.911Z,98645.25
2023-07-24T18:06:29.525Z,98644.75
2023-07-24T18:08:56.076Z,98659.50
2023-07-24T18:11:22.730Z,98669.38
2023-07-24T18:13:49.306Z,98663.88
2023-07-24T18:16:17.285Z,98667.88
2023-07-24T18:18:44.249Z,98673.41
2023-07-24T18:21:10.896Z,98686.41
2023-07-24T18:23:37.495Z,98684.31
2023-07-24T18:26:04.233Z,98678.31
2023-07-24T18:28:30.848Z,98680.78
2023-07-24T18:30:57.423Z,98675.84
2023-07-24T18:33:23.991Z,98680.31
2023-07-24T18:35:53.391Z,98689.25
2023-07-24T18:38:21.362Z,98677.50
2023-07-24T18:40:48.103Z,98681.72
2023-07-24T18:43:14.730Z,98683.59
2023-07-24T18:45:41.430Z,98684.06
2023-07-24T18:48:10.322Z,98675.09
2023-07-24T18:50:37.006Z,98682.25
2023-07-24T18:53:03.711Z,98685.38
2023-07-24T18:55:30.574Z,98688.31
2023-07-24T18:57:57.206Z,98682.59
2023-07-24T19:00:23.890Z,98682.72
2023-07-24T19:02:50.509Z,98741.97
2023-07-24T19:05:17.154Z,98758.13
2023-07-24T19:07:43.762Z,98796.00
2023-07-24T19:10:11.371Z,98787.78
2023-07-24T19:12:39.834Z,98795.44
2023-07-24T19:15:07.930Z,98805.81
2023-07-24T19:17:34.958Z,98811.28
2023-07-24T19:20:01.653Z,98815.44
2023-07-24T19:22:28.287Z,98822.75
2023-07-24T19:24:55.348Z,98827.16
2023-07-24T19:27:23.295Z,98832.88
2023-07-24T19:29:51.154Z,98846.31
2023-07-24T19:32:18.239Z,98839.84
2023-07-24T19:34:45.288Z,98847.22
2023-07-24T19:37:12.144Z,98855.47
2023-07-24T19:39:41.803Z,98864.09
2023-07-24T19:42:10.577Z,98865.91
2023-07-24T19:44:38.469Z,98871.59
2023-07-24T19:47:05.433Z,98882.06
2023-07-24T19:49:34.510Z,98868.84
2023-07-24T19:52:01.880Z,98869.66
2023-07-24T19:54:30.027Z,98868.44
2023-07-24T19:56:56.757Z,98860.91
2023-07-24T19:59:23.646Z,98866.38
2023-07-24T20:01:50.300Z,98876.06
2023-07-24T20:04:16.972Z,98868.00
2023-07-24T20:06:43.508Z,98876.78
2023-07-24T20:09:10.156Z,98886.97
2023-07-24T20:11:36.986Z,98870.59
2023-07-24T20:14:03.772Z,98866.69
2023-07-24T20:16:30.509Z,98866.31
2023-07-24T20:18:57.132Z,98867.16
2023-07-24T20:21:23.900Z,98860.38
2023-07-24T20:23:50.507Z,98877.09
2023-07-24T20:26:17.082Z,98875.59
2023-07-24T20:28:44.506Z,98863.47
2023-07-24T20:31:11.874Z,98858.09
2023-07-24T20:33:38.834Z,98866.34
2023-07-24T20:36:09.918Z,98881.44
2023-07-24T20:38:37.998Z,98892.03
2023-07-24T20:41:04.648Z,98907.09
2023-07-24T20:43:31.316Z,98927.34
2023-07-24T20:45:58.115Z,98935.69
2023-07-24T20:48:25.858Z,98933.16
2023-07-24T20:50:54.265Z,98930.13
2023-07-24T20:53:20.847Z,98901.34
2023-07-24T20:55:48.028Z,98916.44
2023-07-24T20:58:14.584Z,98930.31
2023-07-24T21:00:41.167Z,98940.06
2023-07-24T21:03:07.855Z,98941.97
2023-07-24T21:05:37.260Z,98943.31
2023-07-24T21:08:04.600Z,98935.78
2023-07-24T21:10:31.191Z,98945.88
2023-07-24T21:12:57.808Z,98946.06
2023-07-24T21:15:24.399Z,98935.97
2023-07-24T21:17:51.039Z,98938.31
2023-07-24T21:20:17.664Z,98951.56
2023-07-24T21:22:44.285Z,98932.91
2023-07-24T21:25:10.919Z,98929.41
2023-07-24T21:27:37.648Z,98928.34
2023-07-24T21:30:05.199Z,98923.41
2023-07-24T21:32:31.827Z,98923.97
2023-07-24T21:34:58.417Z,98921.84
2023-07-24T21:37:25.032Z,98922.91
2023-07-24T21:39:51.606Z,98926.22
2023-07-24T21:42:18.234Z,98927.72
2023-07-24T21:44:44.801Z,98932.78
2023-07-24T21:47:11.528Z,98934.25
2023-07-24T21:49:38.149Z,98939.06
2023-07-24T21:52:05.116Z,98938.00
2023-07-24T21:54:32.249Z,98941.34
2023-07-24T21:56:58.828Z,98938.25
2023-07-24T21:59:25.401Z,98937.91
2023-07-24T22:01:52.004Z,98932.72
2023-07-24T22:04:19.270Z,98931.97
2023-07-24T22:06:45.867Z,98939.34
2023-07-24T22:09:12.448Z,98929.22
2023-07-24T22:11:39.009Z,98925.78
2023-07-24T22:14:05.632Z,98925.41
2023-07-24T22:16:32.286Z,98929.69
2023-07-24T22:19:01.538Z,98922.22
2023-07-24T22:21:28.196Z,98919.75
2023-07-24T22:23:54.906Z,98924.28
2023-07-24T22:26:21.509Z,98918.47
2023-07-24T22:28:48.088Z,98923.53
2023-07-24T22:31:14.905Z,98934.50
2023-07-24T22:33:41.506Z,98931.38
2023-07-24T22:36:08.138Z,98934.88
2023-07-24T22:38:34.746Z,98917.63
2023-07-24T22:41:10.044Z,98908.13
2023-07-24T22:43:37.086Z,98919.25
2023-07-24T22:46:03.843Z,98915.97
2023-07-24T22:48:30.616Z,98926.50
2023-07-24T22:50:57.228Z,98930.50
2023-07-24T22:53:23.792Z,98936.47
2023-07-24T22:55:50.372Z,98939.50
2023-07-24T22:58:16.929Z,98954.16
2023-07-24T23:00:43.581Z,98944.91
2023-07-24T23:03:11.278Z,98944.38
2023-07-24T23:05:37.920Z,98963.59
2023-07-24T23:08:04.631Z,98961.69
2023-07-24T23:11:08.677Z,98956.72
2023-07-24T23:13:35.185Z,98953.91
2023-07-24T23:16:01.700Z,98960.03
2023-07-24T23:18:28.211Z,98961.97
2023-07-24T23:20:54.717Z,98970.97
2023-07-24T23:23:21.208Z,98965.03
2023-07-24T23:25:47.689Z,98963.94
2023-07-24T23:28:14.645Z,98960.63
2023-07-24T23:30:41.936Z,98963.75
2023-07-24T23:33:09.323Z,98967.09
2023-07-24T23:35:35.846Z,98978.03
2023-07-24T23:38:02.698Z,98987.38
2023-07-24T23:40:29.209Z,98972.16
2023-07-24T23:42:55.719Z,98977.09
2023-07-24T23:45:22.221Z,98982.16
2023-07-24T23:47:48.710Z,98981.91
2023-07-24T23:50:15.280Z,98977.50
2023-07-24T23:52:41.789Z,98978.44
2023-07-24T23:55:09.643Z,98981.78
2023-07-24T23:57:36.172Z,98984.63
